sensor_id;sensor_type;location;lat;lon;timestamp;pressure;altitude;pressure_sealevel;temperature;humidity
62548;BME280;48602;45.192;5.722;2023-02-19T00:01:20;100388.84;;;9.48;69.32
62548;BME280;48602;45.192;5.722;2023-02-19T00:03:49;100390.66;;;9.43;69.50
62548;BME280;48602;45.192;5.722;2023-02-19T00:06:17;100388.91;;;9.43;69.46
62548;BME280;48602;45.192;5.722;2023-02-19T00:08:42;100395.06;;;9.42;69.48
62548;BME280;48602;45.192;5.722;2023-02-19T00:11:13;100388.06;;;9.41;69.49
62548;BME280;48602;45.192;5.722;2023-02-19T00:13:41;100392.44;;;9.41;69.81
62548;BME280;48602;45.192;5.722;2023-02-19T00:18:33;100397.78;;;9.38;69.91
62548;BME280;48602;45.192;5.722;2023-02-19T00:20:58;100391.66;;;9.36;69.95
62548;BME280;48602;45.192;5.722;2023-02-19T00:23:23;100390.84;;;9.32;69.77
62548;BME280;48602;45.192;5.722;2023-02-19T00:25:49;100389.09;;;9.31;70.02
62548;BME280;48602;45.192;5.722;2023-02-19T00:28:14;100396.16;;;9.29;69.80
62548;BME280;48602;45.192;5.722;2023-02-19T00:30:40;100389.19;;;9.25;69.71
62548;BME280;48602;45.192;5.722;2023-02-19T00:33:05;100387.41;;;9.26;69.83
62548;BME280;48602;45.192;5.722;2023-02-19T00:35:33;100376.88;;;9.26;69.93
62548;BME280;48602;45.192;5.722;2023-02-19T00:37:59;100381.31;;;9.24;70.54
62548;BME280;48602;45.192;5.722;2023-02-19T00:40:24;100379.63;;;9.20;70.31
62548;BME280;48602;45.192;5.722;2023-02-19T00:42:50;100378.78;;;9.18;70.62
62548;BME280;48602;45.192;5.722;2023-02-19T00:45:16;100390.19;;;9.18;70.46
62548;BME280;48602;45.192;5.722;2023-02-19T00:47:41;100391.06;;;9.17;70.72
62548;BME280;48602;45.192;5.722;2023-02-19T00:50:07;100378.84;;;9.13;70.50
62548;BME280;48602;45.192;5.722;2023-02-19T00:52:33;100389.38;;;9.12;70.67
62548;BME280;48602;45.192;5.722;2023-02-19T00:54:58;100391.13;;;9.11;70.92
62548;BME280;48602;45.192;5.722;2023-02-19T00:57:23;100387.63;;;9.10;70.63
62548;BME280;48602;45.192;5.722;2023-02-19T00:59:49;100385.03;;;9.07;70.59
62548;BME280;48602;45.192;5.722;2023-02-19T01:02:14;100378.91;;;9.07;71.05
62548;BME280;48602;45.192;5.722;2023-02-19T01:04:39;100384.19;;;9.05;70.66
62548;BME280;48602;45.192;5.722;2023-02-19T01:07:05;100385.13;;;9.04;70.84
62548;BME280;48602;45.192;5.722;2023-02-19T01:09:30;100386.81;;;9.05;70.87
62548;BME280;48602;45.192;5.722;2023-02-19T01:11:56;100389.44;;;9.05;70.70
62548;BME280;48602;45.192;5.722;2023-02-19T01:14:21;100389.44;;;9.05;70.60
62548;BME280;48602;45.192;5.722;2023-02-19T01:16:46;100391.25;;;9.03;70.53
62548;BME280;48602;45.192;5.722;2023-02-19T01:19:12;100386.81;;;9.05;70.13
62548;BME280;48602;45.192;5.722;2023-02-19T01:21:38;100380.69;;;9.05;70.19
62548;BME280;48602;45.192;5.722;2023-02-19T01:24:04;100373.75;;;9.01;70.38
62548;BME280;48602;45.192;5.722;2023-02-19T01:26:31;100373.78;;;8.99;70.10
62548;BME280;48602;45.192;5.722;2023-02-19T01:28:58;100381.69;;;8.98;70.39
62548;BME280;48602;45.192;5.722;2023-02-19T01:31:24;100383.47;;;8.96;70.93
62548;BME280;48602;45.192;5.722;2023-02-19T01:34:09;100382.63;;;8.92;71.34
62548;BME280;48602;45.192;5.722;2023-02-19T01:36:36;100379.13;;;8.90;71.00
62548;BME280;48602;45.192;5.722;2023-02-19T01:39:03;100377.47;;;8.86;71.87
62548;BME280;48602;45.192;5.722;2023-02-19T01:41:30;100381.88;;;8.83;72.06
62548;BME280;48602;45.192;5.722;2023-02-19T01:44:01;100379.31;;;8.78;72.46
62548;BME280;48602;45.192;5.722;2023-02-19T01:46:32;100376.72;;;8.73;72.51
62548;BME280;48602;45.192;5.722;2023-02-19T01:49:03;100372.41;;;8.69;72.77
62548;BME280;48602;45.192;5.722;2023-02-19T01:51:32;100369.81;;;8.68;72.58
62548;BME280;48602;45.192;5.722;2023-02-19T01:54:01;100368.06;;;8.65;72.49
62548;BME280;48602;45.192;5.722;2023-02-19T01:56:29;100369.00;;;8.61;72.82
62548;BME280;48602;45.192;5.722;2023-02-19T01:58:56;100369.03;;;8.58;73.14
62548;BME280;48602;45.192;5.722;2023-02-19T02:01:23;100370.78;;;8.58;73.16
62548;BME280;48602;45.192;5.722;2023-02-19T02:03:48;100365.53;;;8.56;73.06
62548;BME280;48602;45.192;5.722;2023-02-19T02:06:23;100368.19;;;8.55;73.28
62548;BME280;48602;45.192;5.722;2023-02-19T02:08:52;100363.00;;;8.50;73.45
62548;BME280;48602;45.192;5.722;2023-02-19T02:11:37;100357.78;;;8.47;73.42
62548;BME280;48602;45.192;5.722;2023-02-19T02:14:04;100364.81;;;8.45;73.55
62548;BME280;48602;45.192;5.722;2023-02-19T02:16:49;100357.84;;;8.41;73.49
62548;BME280;48602;45.192;5.722;2023-02-19T02:22:18;100362.31;;;8.36;73.61
62548;BME280;48602;45.192;5.722;2023-02-19T02:27:21;100350.94;;;8.31;73.70
62548;BME280;48602;45.192;5.722;2023-02-19T02:32:42;100343.97;;;8.27;74.14
62548;BME280;48602;45.192;5.722;2023-02-19T02:35:21;100344.84;;;8.26;74.25
62548;BME280;48602;45.192;5.722;2023-02-19T02:37:48;100345.72;;;8.26;74.28
62548;BME280;48602;45.192;5.722;2023-02-19T02:40:16;100341.34;;;8.25;74.10
62548;BME280;48602;45.192;5.722;2023-02-19T02:42:43;100344.00;;;8.24;74.26
62548;BME280;48602;45.192;5.722;2023-02-19T02:50:41;100343.22;;;8.17;74.29
62548;BME280;48602;45.192;5.722;2023-02-19T02:53:16;100338.84;;;8.16;74.52
62548;BME280;48602;45.192;5.722;2023-02-19T02:56:02;100333.63;;;8.13;74.41
62548;BME280;48602;45.192;5.722;2023-02-19T02:58:29;100335.38;;;8.13;74.51
62548;BME280;48602;45.192;5.722;2023-02-19T03:01:19;100331.91;;;8.09;74.88
62548;BME280;48602;45.192;5.722;2023-02-19T03:04:09;100340.69;;;8.06;75.07
62548;BME280;48602;45.192;5.722;2023-02-19T03:06:36;100338.94;;;8.05;74.78
62548;BME280;48602;45.192;5.722;2023-02-19T03:09:09;100329.34;;;8.03;74.85
62548;BME280;48602;45.192;5.722;2023-02-19T03:11:39;100328.50;;;7.99;74.98
62548;BME280;48602;45.192;5.722;2023-02-19T03:14:32;100326.78;;;7.97;75.17
62548;BME280;48602;45.192;5.722;2023-02-19T03:17:27;100321.53;;;7.95;75.13
62548;BME280;48602;45.192;5.722;2023-02-19T03:20:15;100326.81;;;7.94;75.06
62548;BME280;48602;45.192;5.722;2023-02-19T03:22:43;100321.59;;;7.91;74.98
62548;BME280;48602;45.192;5.722;2023-02-19T03:25:18;100321.59;;;7.88;75.13
62548;BME280;48602;45.192;5.722;2023-02-19T03:28:20;100318.19;;;7.83;75.15
62548;BME280;48602;45.192;5.722;2023-02-19T03:31:09;100310.34;;;7.78;75.23
62548;BME280;48602;45.192;5.722;2023-02-19T03:33:38;100304.25;;;7.75;75.05
62548;BME280;48602;45.192;5.722;2023-02-19T03:36:07;100298.13;;;7.72;75.12
62548;BME280;48602;45.192;5.722;2023-02-19T03:38:55;100299.94;;;7.69;75.37
62548;BME280;48602;45.192;5.722;2023-02-19T03:41:51;100304.34;;;7.65;75.51
62548;BME280;48602;45.192;5.722;2023-02-19T03:47:13;100309.63;;;7.62;75.62
62548;BME280;48602;45.192;5.722;2023-02-19T03:49:48;100310.50;;;7.60;75.42
62548;BME280;48602;45.192;5.722;2023-02-19T04:00:25;100315.00;;;7.47;75.87
62548;BME280;48602;45.192;5.722;2023-02-19T04:02:53;100320.25;;;7.46;75.86
62548;BME280;48602;45.192;5.722;2023-02-19T04:05:32;100321.16;;;7.43;76.14
62548;BME280;48602;45.192;5.722;2023-02-19T04:08:11;100316.78;;;7.41;76.01
62548;BME280;48602;45.192;5.722;2023-02-19T04:10:39;100316.81;;;7.38;75.87
62548;BME280;48602;45.192;5.722;2023-02-19T04:13:14;100322.94;;;7.38;76.24
62548;BME280;48602;45.192;5.722;2023-02-19T04:15:43;100320.38;;;7.35;76.58
62548;BME280;48602;45.192;5.722;2023-02-19T04:18:17;100319.50;;;7.31;76.46
62548;BME280;48602;45.192;5.722;2023-02-19T04:20:46;100325.63;;;7.30;76.76
62548;BME280;48602;45.192;5.722;2023-02-19T04:23:13;100324.78;;;7.28;76.95
62548;BME280;48602;45.192;5.722;2023-02-19T04:25:43;100321.28;;;7.26;76.81
62548;BME280;48602;45.192;5.722;2023-02-19T04:28:12;100323.06;;;7.23;76.87
62548;BME280;48602;45.192;5.722;2023-02-19T04:30:38;100326.56;;;7.22;76.91
62548;BME280;48602;45.192;5.722;2023-02-19T04:33:05;100328.34;;;7.18;76.70
62548;BME280;48602;45.192;5.722;2023-02-19T04:35:30;100328.38;;;7.17;76.77
62548;BME280;48602;45.192;5.722;2023-02-19T04:37:55;100334.50;;;7.14;77.05
62548;BME280;48602;45.192;5.722;2023-02-19T04:40:21;100333.63;;;7.14;77.28
62548;BME280;48602;45.192;5.722;2023-02-19T04:42:46;100324.00;;;7.13;76.95
62548;BME280;48602;45.192;5.722;2023-02-19T04:45:12;100329.28;;;7.10;76.89
62548;BME280;48602;45.192;5.722;2023-02-19T04:47:37;100328.41;;;7.08;77.46
62548;BME280;48602;45.192;5.722;2023-02-19T04:50:02;100330.16;;;7.07;77.33
62548;BME280;48602;45.192;5.722;2023-02-19T04:52:28;100329.34;;;7.04;77.17
62548;BME280;48602;45.192;5.722;2023-02-19T04:54:53;100327.59;;;6.99;77.36
62548;BME280;48602;45.192;5.722;2023-02-19T04:57:19;100330.25;;;6.96;77.64
62548;BME280;48602;45.192;5.722;2023-02-19T04:59:45;100335.50;;;6.95;77.55
62548;BME280;48602;45.192;5.722;2023-02-19T05:02:11;100339.00;;;6.94;77.60
62548;BME280;48602;45.192;5.722;2023-02-19T05:04:36;100329.38;;;6.91;77.86
62548;BME280;48602;45.192;5.722;2023-02-19T05:07:01;100332.88;;;6.93;77.91
62548;BME280;48602;45.192;5.722;2023-02-19T05:09:27;100324.16;;;6.91;78.18
62548;BME280;48602;45.192;5.722;2023-02-19T05:11:52;100321.50;;;6.94;77.93
62548;BME280;48602;45.192;5.722;2023-02-19T05:14:17;100326.75;;;6.93;77.64
62548;BME280;48602;45.192;5.722;2023-02-19T05:16:43;100317.16;;;6.92;78.12
62548;BME280;48602;45.192;5.722;2023-02-19T05:19:10;100325.88;;;6.94;77.80
62548;BME280;48602;45.192;5.722;2023-02-19T05:21:36;100331.13;;;6.92;78.17
62548;BME280;48602;45.192;5.722;2023-02-19T05:24:01;100317.16;;;6.90;77.97
62548;BME280;48602;45.192;5.722;2023-02-19T05:26:27;100332.00;;;6.91;78.08
62548;BME280;48602;45.192;5.722;2023-02-19T05:28:53;100333.75;;;6.89;78.06
62548;BME280;48602;45.192;5.722;2023-02-19T05:31:19;100331.16;;;6.88;77.96
62548;BME280;48602;45.192;5.722;2023-02-19T05:33:44;100325.09;;;6.81;78.35
62548;BME280;48602;45.192;5.722;2023-02-19T05:36:14;100325.09;;;6.77;78.58
62548;BME280;48602;45.192;5.722;2023-02-19T05:38:40;100320.75;;;6.76;79.10
62548;BME280;48602;45.192;5.722;2023-02-19T05:41:14;100319.00;;;6.76;78.81
62548;BME280;48602;45.192;5.722;2023-02-19T05:43:41;100326.00;;;6.74;79.07
62548;BME280;48602;45.192;5.722;2023-02-19T05:46:07;100323.41;;;6.68;79.34
62548;BME280;48602;45.192;5.722;2023-02-19T05:48:33;100327.81;;;6.63;78.82
62548;BME280;48602;45.192;5.722;2023-02-19T05:51:06;100337.41;;;6.59;79.63
62548;BME280;48602;45.192;5.722;2023-02-19T05:53:34;100343.53;;;6.54;80.15
62548;BME280;48602;45.192;5.722;2023-02-19T05:56:00;100350.56;;;6.52;79.67
62548;BME280;48602;45.192;5.722;2023-02-19T05:58:26;100353.19;;;6.46;79.62
62548;BME280;48602;45.192;5.722;2023-02-19T06:00:52;100355.81;;;6.43;80.16
62548;BME280;48602;45.192;5.722;2023-02-19T06:03:18;100348.88;;;6.36;80.40
62548;BME280;48602;45.192;5.722;2023-02-19T06:05:43;100341.03;;;6.34;79.58
62548;BME280;48602;45.192;5.722;2023-02-19T06:08:12;100341.03;;;6.29;80.52
62548;BME280;48602;45.192;5.722;2023-02-19T06:10:38;100340.16;;;6.29;80.95
62548;BME280;48602;45.192;5.722;2023-02-19T06:13:06;100340.16;;;6.29;81.47
62548;BME280;48602;45.192;5.722;2023-02-19T06:15:32;100339.28;;;6.32;81.23
62548;BME280;48602;45.192;5.722;2023-02-19T06:17:57;100342.78;;;6.34;81.08
62548;BME280;48602;45.192;5.722;2023-02-19T06:20:22;100355.88;;;6.35;81.27
62548;BME280;48602;45.192;5.722;2023-02-19T06:22:51;100354.13;;;6.36;80.97
62548;BME280;48602;45.192;5.722;2023-02-19T06:25:17;100353.22;;;6.38;80.94
62548;BME280;48602;45.192;5.722;2023-02-19T06:27:43;100359.31;;;6.43;80.89
62548;BME280;48602;45.192;5.722;2023-02-19T06:30:09;100360.19;;;6.48;81.04
62548;BME280;48602;45.192;5.722;2023-02-19T06:32:34;100360.13;;;6.56;80.67
62548;BME280;48602;45.192;5.722;2023-02-19T06:35:00;100362.72;;;6.67;80.30
62548;BME280;48602;45.192;5.722;2023-02-19T06:37:25;100358.31;;;6.73;80.20
62548;BME280;48602;45.192;5.722;2023-02-19T06:39:51;100354.81;;;6.79;79.84
62548;BME280;48602;45.192;5.722;2023-02-19T06:42:17;100362.66;;;6.83;79.70
62548;BME280;48602;45.192;5.722;2023-02-19T06:44:42;100365.22;;;6.88;79.14
62548;BME280;48602;45.192;5.722;2023-02-19T06:47:07;100360.84;;;6.90;79.08
62548;BME280;48602;45.192;5.722;2023-02-19T06:49:33;100367.81;;;6.92;78.68
62548;BME280;48602;45.192;5.722;2023-02-19T06:51:58;100371.31;;;6.94;78.73
62548;BME280;48602;45.192;5.722;2023-02-19T06:54:25;100373.94;;;6.96;78.44
62548;BME280;48602;45.192;5.722;2023-02-19T06:56:51;100366.94;;;6.98;78.43
62548;BME280;48602;45.192;5.722;2023-02-19T06:59:16;100373.91;;;6.99;78.10
62548;BME280;48602;45.192;5.722;2023-02-19T07:01:42;100373.03;;;7.02;78.12
62548;BME280;48602;45.192;5.722;2023-02-19T07:04:08;100366.03;;;7.04;77.96
62548;BME280;48602;45.192;5.722;2023-02-19T07:06:35;100368.63;;;7.05;77.85
62548;BME280;48602;45.192;5.722;2023-02-19T07:09:02;100366.00;;;7.08;77.60
62548;BME280;48602;45.192;5.722;2023-02-19T07:11:32;100375.59;;;7.11;77.42
62548;BME280;48602;45.192;5.722;2023-02-19T07:13:59;100360.72;;;7.11;77.77
62548;BME280;48602;45.192;5.722;2023-02-19T07:16:25;100358.97;;;7.12;77.51
62548;BME280;48602;45.192;5.722;2023-02-19T07:18:51;100356.34;;;7.12;77.50
62548;BME280;48602;45.192;5.722;2023-02-19T07:21:18;100359.84;;;7.12;77.66
62548;BME280;48602;45.192;5.722;2023-02-19T07:23:44;100362.44;;;7.20;77.60
62548;BME280;48602;45.192;5.722;2023-02-19T07:26:15;100358.88;;;7.27;77.14
62548;BME280;48602;45.192;5.722;2023-02-19T07:28:42;100364.09;;;7.31;77.18
62548;BME280;48602;45.192;5.722;2023-02-19T07:31:07;100361.44;;;7.36;76.86
62548;BME280;48602;45.192;5.722;2023-02-19T07:33:33;100360.53;;;7.39;77.11
62548;BME280;48602;45.192;5.722;2023-02-19T07:35:58;100370.16;;;7.40;77.07
62548;BME280;48602;45.192;5.722;2023-02-19T07:38:24;100363.13;;;7.42;77.17
62548;BME280;48602;45.192;5.722;2023-02-19T07:43:16;100370.97;;;7.46;76.84
62548;BME280;48602;45.192;5.722;2023-02-19T07:45:42;100374.47;;;7.48;76.50
62548;BME280;48602;45.192;5.722;2023-02-19T07:48:07;100379.72;;;7.50;76.62
62548;BME280;48602;45.192;5.722;2023-02-19T07:50:33;100389.31;;;7.52;76.40
62548;BME280;48602;45.192;5.722;2023-02-19T07:52:58;100389.25;;;7.57;76.65
62548;BME280;48602;45.192;5.722;2023-02-19T07:55:24;100400.59;;;7.60;76.29
62548;BME280;48602;45.192;5.722;2023-02-19T07:57:49;100402.34;;;7.63;76.07
62548;BME280;48602;45.192;5.722;2023-02-19T08:00:15;100411.97;;;7.61;75.95
62548;BME280;48602;45.192;5.722;2023-02-19T08:02:40;100412.84;;;7.60;75.66
62548;BME280;48602;45.192;5.722;2023-02-19T08:05:24;100409.38;;;7.58;75.84
62548;BME280;48602;45.192;5.722;2023-02-19T08:07:50;100411.97;;;7.61;76.03
62548;BME280;48602;45.192;5.722;2023-02-19T08:10:16;100419.00;;;7.59;75.56
62548;BME280;48602;45.192;5.722;2023-02-19T08:13:00;100414.69;;;7.53;75.49
62548;BME280;48602;45.192;5.722;2023-02-19T08:18:17;100426.00;;;7.57;76.09
62548;BME280;48602;45.192;5.722;2023-02-19T08:20:43;100418.09;;;7.60;75.80
62548;BME280;48602;45.192;5.722;2023-02-19T08:23:10;100416.31;;;7.65;76.26
62548;BME280;48602;45.192;5.722;2023-02-19T08:25:36;100410.13;;;7.74;76.20
62548;BME280;48602;45.192;5.722;2023-02-19T08:28:02;100418.81;;;7.82;76.05
62548;BME280;48602;45.192;5.722;2023-02-19T08:30:28;100414.41;;;7.87;75.96
62548;BME280;48602;45.192;5.722;2023-02-19T08:32:54;100404.81;;;7.84;75.66
62548;BME280;48602;45.192;5.722;2023-02-19T08:35:20;100413.53;;;7.86;75.86
62548;BME280;48602;45.192;5.722;2023-02-19T08:37:46;100416.13;;;7.89;75.45
62548;BME280;48602;45.192;5.722;2023-02-19T08:40:11;100417.81;;;7.96;75.38
62548;BME280;48602;45.192;5.722;2023-02-19T08:42:37;100419.44;;;8.08;75.44
62548;BME280;48602;45.192;5.722;2023-02-19T08:45:03;100422.88;;;8.19;75.00
62548;BME280;48602;45.192;5.722;2023-02-19T08:47:28;100420.13;;;8.33;74.54
62548;BME280;48602;45.192;5.722;2023-02-19T08:49:54;100424.34;;;8.48;74.73
62548;BME280;48602;45.192;5.722;2023-02-19T08:52:19;100421.56;;;8.61;74.01
62548;BME280;48602;45.192;5.722;2023-02-19T08:54:44;100438.06;;;8.72;73.28
62548;BME280;48602;45.192;5.722;2023-02-19T08:57:10;100430.09;;;8.82;72.62
62548;BME280;48602;45.192;5.722;2023-02-19T08:59:35;100433.44;;;8.94;72.54
62548;BME280;48602;45.192;5.722;2023-02-19T09:02:00;100423.66;;;9.05;72.20
62548;BME280;48602;45.192;5.722;2023-02-19T09:04:26;100419.13;;;9.18;71.96
62548;BME280;48602;45.192;5.722;2023-02-19T09:06:51;100425.13;;;9.26;71.85
62548;BME280;48602;45.192;5.722;2023-02-19T09:09:17;100429.38;;;9.38;71.38
62548;BME280;48602;45.192;5.722;2023-02-19T09:11:42;100436.22;;;9.48;71.10
62548;BME280;48602;45.192;5.722;2023-02-19T09:14:08;100430.78;;;9.59;70.57
62548;BME280;48602;45.192;5.722;2023-02-19T09:16:34;100426.25;;;9.70;70.46
62548;BME280;48602;45.192;5.722;2023-02-19T09:18:59;100430.41;;;9.83;70.09
62548;BME280;48602;45.192;5.722;2023-02-19T09:21:25;100430.19;;;9.97;69.73
62548;BME280;48602;45.192;5.722;2023-02-19T09:23:50;100421.19;;;10.10;69.25
62548;BME280;48602;45.192;5.722;2023-02-19T09:26:16;100427.13;;;10.23;69.15
62548;BME280;48602;45.192;5.722;2023-02-19T09:28:41;100425.13;;;10.37;68.57
62548;BME280;48602;45.192;5.722;2023-02-19T09:31:09;100428.41;;;10.49;68.28
62548;BME280;48602;45.192;5.722;2023-02-19T09:33:35;100431.69;;;10.61;68.22
62548;BME280;48602;45.192;5.722;2023-02-19T09:36:01;100437.59;;;10.73;67.61
62548;BME280;48602;45.192;5.722;2023-02-19T09:38:28;100422.53;;;10.80;67.72
62548;BME280;48602;45.192;5.722;2023-02-19T09:40:58;100429.41;;;10.89;67.44
62548;BME280;48602;45.192;5.722;2023-02-19T09:43:30;100421.31;;;10.96;66.83
62548;BME280;48602;45.192;5.722;2023-02-19T09:46:02;100418.63;;;10.99;66.67
62548;BME280;48602;45.192;5.722;2023-02-19T09:48:29;100425.56;;;11.03;66.33
62548;BME280;48602;45.192;5.722;2023-02-19T09:50:55;100411.38;;;11.07;66.04
62548;BME280;48602;45.192;5.722;2023-02-19T09:53:29;100413.22;;;11.05;65.69
62548;BME280;48602;45.192;5.722;2023-02-19T09:55:59;100416.66;;;11.07;65.37
62548;BME280;48602;45.192;5.722;2023-02-19T09:58:42;100417.47;;;11.11;65.32
62548;BME280;48602;45.192;5.722;2023-02-19T10:01:11;100407.72;;;11.14;65.23
62548;BME280;48602;45.192;5.722;2023-02-19T10:03:38;100412.94;;;11.17;64.80
62548;BME280;48602;45.192;5.722;2023-02-19T10:06:27;100414.56;;;11.23;64.70
62548;BME280;48602;45.192;5.722;2023-02-19T10:08:54;100399.47;;;11.30;64.13
62548;BME280;48602;45.192;5.722;2023-02-19T10:11:21;100401.09;;;11.37;64.14
62548;BME280;48602;45.192;5.722;2023-02-19T10:13:55;100402.63;;;11.45;64.30
62548;BME280;48602;45.192;5.722;2023-02-19T10:16:27;100398.09;;;11.52;64.31
62548;BME280;48602;45.192;5.722;2023-02-19T10:18:53;100383.91;;;11.56;63.97
62548;BME280;48602;45.192;5.722;2023-02-19T10:21:24;100382.09;;;11.57;63.65
62548;BME280;48602;45.192;5.722;2023-02-19T10:23:53;100382.88;;;11.62;63.46
62548;BME280;48602;45.192;5.722;2023-02-19T10:26:21;100386.25;;;11.68;63.18
62548;BME280;48602;45.192;5.722;2023-02-19T10:28:47;100381.75;;;11.72;63.38
62548;BME280;48602;45.192;5.722;2023-02-19T10:31:19;100383.50;;;11.73;62.90
62548;BME280;48602;45.192;5.722;2023-02-19T10:33:52;100382.50;;;11.78;62.41
62548;BME280;48602;45.192;5.722;2023-02-19T10:36:30;100385.03;;;11.83;62.06
62548;BME280;48602;45.192;5.722;2023-02-19T10:38:57;100376.09;;;11.88;61.60
62548;BME280;48602;45.192;5.722;2023-02-19T10:41:25;100375.03;;;11.94;61.26
62548;BME280;48602;45.192;5.722;2023-02-19T10:46:34;100361.66;;;12.02;60.85
62548;BME280;48602;45.192;5.722;2023-02-19T10:49:04;100369.41;;;12.08;60.38
62548;BME280;48602;45.192;5.722;2023-02-19T10:51:35;100366.63;;;12.12;60.30
62548;BME280;48602;45.192;5.722;2023-02-19T10:54:15;100346.16;;;12.20;59.79
62548;BME280;48602;45.192;5.722;2023-02-19T10:56:41;100357.44;;;12.27;59.25
62548;BME280;48602;45.192;5.722;2023-02-19T10:59:27;100355.53;;;12.32;59.22
62548;BME280;48602;45.192;5.722;2023-02-19T11:02:00;100350.94;;;12.39;58.96
62548;BME280;48602;45.192;5.722;2023-02-19T11:04:28;100346.31;;;12.47;59.34
62548;BME280;48602;45.192;5.722;2023-02-19T11:07:06;100347.03;;;12.52;58.96
62548;BME280;48602;45.192;5.722;2023-02-19T11:09:40;100345.97;;;12.57;58.87
62548;BME280;48602;45.192;5.722;2023-02-19T11:12:08;100342.25;;;12.65;58.82
62548;BME280;48602;45.192;5.722;2023-02-19T11:14:34;100344.75;;;12.71;58.51
62548;BME280;48602;45.192;5.722;2023-02-19T11:17:01;100336.66;;;12.75;58.66
62548;BME280;48602;45.192;5.722;2023-02-19T11:22:02;100336.31;;;12.87;58.63
62548;BME280;48602;45.192;5.722;2023-02-19T11:24:49;100330.91;;;12.90;58.69
62548;BME280;48602;45.192;5.722;2023-02-19T11:27:22;100321.09;;;12.94;58.52
62548;BME280;48602;45.192;5.722;2023-02-19T11:29:48;100322.81;;;12.95;59.25
62548;BME280;48602;45.192;5.722;2023-02-19T11:32:31;100313.84;;;13.01;58.69
62548;BME280;48602;45.192;5.722;2023-02-19T11:35:18;100334.00;;;13.05;58.04
62548;BME280;48602;45.192;5.722;2023-02-19T11:38:00;100316.22;;;13.08;58.31
62548;BME280;48602;45.192;5.722;2023-02-19T11:43:26;100324.91;;;13.13;57.90
62548;BME280;48602;45.192;5.722;2023-02-19T11:54:03;100312.22;;;13.24;58.29
62548;BME280;48602;45.192;5.722;2023-02-19T11:56:35;100315.53;;;13.31;57.35
62548;BME280;48602;45.192;5.722;2023-02-19T12:10:30;100295.22;;;13.58;58.05
62548;BME280;48602;45.192;5.722;2023-02-19T12:27:27;100273.97;;;13.86;57.04
62548;BME280;48602;45.192;5.722;2023-02-19T12:35:43;100271.88;;;13.94;57.62
62548;BME280;48602;45.192;5.722;2023-02-19T12:38:40;100256.59;;;14.02;57.27
62548;BME280;48602;45.192;5.722;2023-02-19T12:43:39;100237.16;;;14.02;57.12
62548;BME280;48602;45.192;5.722;2023-02-19T12:46:22;100243.44;;;13.99;57.20
62548;BME280;48602;45.192;5.722;2023-02-19T12:49:13;100227.53;;;13.99;57.19
62548;BME280;48602;45.192;5.722;2023-02-19T12:51:47;100232.72;;;14.02;57.81
62548;BME280;48602;45.192;5.722;2023-02-19T12:54:26;100221.88;;;14.08;57.53
62548;BME280;48602;45.192;5.722;2023-02-19T12:57:00;100227.00;;;14.13;57.49
62548;BME280;48602;45.192;5.722;2023-02-19T12:59:39;100221.59;;;14.16;57.40
62548;BME280;48602;45.192;5.722;2023-02-19T13:02:26;100224.16;;;14.19;57.13
62548;BME280;48602;45.192;5.722;2023-02-19T13:07:30;100222.09;;;14.25;56.88
62548;BME280;48602;45.192;5.722;2023-02-19T13:12:44;100191.94;;;14.28;57.17
62548;BME280;48602;45.192;5.722;2023-02-19T13:15:15;100189.31;;;14.28;56.62
62548;BME280;48602;45.192;5.722;2023-02-19T13:17:45;100198.94;;;14.30;56.87
62548;BME280;48602;45.192;5.722;2023-02-19T13:20:33;100210.63;;;14.25;57.06
62548;BME280;48602;45.192;5.722;2023-02-19T13:36:57;100195.34;;;14.08;58.01
62548;BME280;48602;45.192;5.722;2023-02-19T13:39:24;100182.19;;;14.07;58.36
62548;BME280;48602;45.192;5.722;2023-02-19T13:41:52;100177.75;;;14.07;58.44
62548;BME280;48602;45.192;5.722;2023-02-19T13:44:21;100182.03;;;14.10;57.86
62548;BME280;48602;45.192;5.722;2023-02-19T13:46:49;100168.06;;;14.06;58.22
62548;BME280;48602;45.192;5.722;2023-02-19T13:51:57;100167.31;;;14.03;58.44
62548;BME280;48602;45.192;5.722;2023-02-19T13:54:33;100162.00;;;14.03;58.65
62548;BME280;48602;45.192;5.722;2023-02-19T13:59:55;100218.34;;;14.08;58.71
62548;BME280;48602;45.192;5.722;2023-02-19T14:09:53;100168.28;;;14.00;58.91
62548;BME280;48602;45.192;5.722;2023-02-19T14:12:20;100169.25;;;13.97;58.81
62548;BME280;48602;45.192;5.722;2023-02-19T14:14:54;100179.84;;;13.97;59.33
62548;BME280;48602;45.192;5.722;2023-02-19T14:28:13;100210.03;;;13.93;59.66
62548;BME280;48602;45.192;5.722;2023-02-19T14:30:56;100199.63;;;13.89;60.19
62548;BME280;48602;45.192;5.722;2023-02-19T14:33:29;100191.84;;;13.84;60.50
62548;BME280;48602;45.192;5.722;2023-02-19T14:36:00;100174.16;;;13.85;60.57
62548;BME280;48602;45.192;5.722;2023-02-19T14:38:32;100213.03;;;13.84;60.58
62548;BME280;48602;45.192;5.722;2023-02-19T14:41:00;100196.38;;;13.81;60.96
62548;BME280;48602;45.192;5.722;2023-02-19T14:43:26;100155.69;;;13.82;60.71
62548;BME280;48602;45.192;5.722;2023-02-19T14:45:59;100163.00;;;13.75;60.73
62548;BME280;48602;45.192;5.722;2023-02-19T14:48:32;100171.94;;;13.73;61.04
62548;BME280;48602;45.192;5.722;2023-02-19T14:51:30;100148.31;;;13.67;61.40
62548;BME280;48602;45.192;5.722;2023-02-19T14:54:01;100160.53;;;13.71;61.50
62548;BME280;48602;45.192;5.722;2023-02-19T14:56:32;100151.81;;;13.67;61.29
62548;BME280;48602;45.192;5.722;2023-02-19T14:59:21;100153.66;;;13.65;61.10
62548;BME280;48602;45.192;5.722;2023-02-19T15:02:01;100192.59;;;13.63;61.59
62548;BME280;48602;45.192;5.722;2023-02-19T15:04:35;100138.53;;;13.69;61.45
62548;BME280;48602;45.192;5.722;2023-02-19T15:07:02;100158.97;;;13.65;61.53
62548;BME280;48602;45.192;5.722;2023-02-19T15:09:34;100130.78;;;13.62;61.60
62548;BME280;48602;45.192;5.722;2023-02-19T15:12:01;100142.34;;;13.60;61.69
62548;BME280;48602;45.192;5.722;2023-02-19T15:14:27;100147.91;;;13.54;61.75
62548;BME280;48602;45.192;5.722;2023-02-19T15:17:21;100144.47;;;13.50;62.11